sensor_id;sensor_type;location;lat;lon;timestamp;P1;durP1;ratioP1;P2;durP2;ratioP2
1174;SDS011;576;48.418;10.074;2024-01-15T00:01:06;5.23;;;4.13;;
1174;SDS011;576;48.418;10.074;2024-01-15T00:03:35;4.30;;;3.87;;
1174;SDS011;576;48.418;10.074;2024-01-15T00:06:03;4.40;;;4.00;;
1174;SDS011;576;48.418;10.074;2024-01-15T00:08:32;4.77;;;4.20;;
1174;SDS011;576;48.418;10.074;2024-01-15T00:11:00;3.83;;;3.40;;
1174;SDS011;576;48.418;10.074;2024-01-15T00:13:28;3.53;;;3.23;;
1174;SDS011;576;48.418;10.074;2024-01-15T00:15:57;4.57;;;4.17;;
1174;SDS011;576;48.418;10.074;2024-01-15T00:18:26;3.83;;;3.53;;
1174;SDS011;576;48.418;10.074;2024-01-15T00:20:55;4.00;;;3.57;;
1174;SDS011;576;48.418;10.074;2024-01-15T00:23:23;3.73;;;3.43;;
1174;SDS011;576;48.418;10.074;2024-01-15T00:25:51;4.60;;;3.80;;
1174;SDS011;576;48.418;10.074;2024-01-15T00:28:19;4.27;;;3.83;;
1174;SDS011;576;48.418;10.074;2024-01-15T00:30:47;3.93;;;3.57;;
1174;SDS011;576;48.418;10.074;2024-01-15T00:33:16;4.63;;;4.10;;
1174;SDS011;576;48.418;10.074;2024-01-15T00:35:46;4.23;;;3.93;;
1174;SDS011;576;48.418;10.074;2024-01-15T00:38:14;3.83;;;3.53;;
1174;SDS011;576;48.418;10.074;2024-01-15T00:40:42;4.83;;;4.20;;
1174;SDS011;576;48.418;10.074;2024-01-15T00:43:10;3.20;;;2.90;;
1174;SDS011;576;48.418;10.074;2024-01-15T00:45:38;4.30;;;3.50;;
1174;SDS011;576;48.418;10.074;2024-01-15T00:48:07;3.83;;;3.43;;
1174;SDS011;576;48.418;10.074;2024-01-15T00:50:35;3.97;;;3.57;;
1174;SDS011;576;48.418;10.074;2024-01-15T00:53:05;5.83;;;3.77;;
1174;SDS011;576;48.418;10.074;2024-01-15T00:55:33;3.80;;;3.23;;
1174;SDS011;576;48.418;10.074;2024-01-15T00:58:02;3.67;;;3.37;;
1174;SDS011;576;48.418;10.074;2024-01-15T01:00:31;4.43;;;4.03;;
1174;SDS011;576;48.418;10.074;2024-01-15T01:02:59;5.33;;;3.37;;
1174;SDS011;576;48.418;10.074;2024-01-15T01:05:27;3.40;;;3.10;;
1174;SDS011;576;48.418;10.074;2024-01-15T01:07:55;4.23;;;3.83;;
1174;SDS011;576;48.418;10.074;2024-01-15T01:10:25;3.30;;;2.97;;
1174;SDS011;576;48.418;10.074;2024-01-15T01:12:53;4.13;;;3.73;;
1174;SDS011;576;48.418;10.074;2024-01-15T01:15:21;3.73;;;3.37;;
1174;SDS011;576;48.418;10.074;2024-01-15T01:17:51;2.97;;;2.70;;
1174;SDS011;576;48.418;10.074;2024-01-15T01:20:19;4.30;;;3.57;;
1174;SDS011;576;48.418;10.074;2024-01-15T01:22:48;3.57;;;3.27;;
1174;SDS011;576;48.418;10.074;2024-01-15T01:25:16;3.57;;;3.23;;
1174;SDS011;576;48.418;10.074;2024-01-15T01:27:45;3.57;;;3.27;;
1174;SDS011;576;48.418;10.074;2024-01-15T01:30:14;3.80;;;3.50;;
1174;SDS011;576;48.418;10.074;2024-01-15T01:32:42;3.30;;;3.00;;
1174;SDS011;576;48.418;10.074;2024-01-15T01:35:10;3.73;;;3.43;;
1174;SDS011;576;48.418;10.074;2024-01-15T01:37:39;4.00;;;3.70;;
1174;SDS011;576;48.418;10.074;2024-01-15T01:40:08;4.07;;;3.67;;
1174;SDS011;576;48.418;10.074;2024-01-15T01:42:36;3.97;;;3.67;;
1174;SDS011;576;48.418;10.074;2024-01-15T01:45:07;5.33;;;3.63;;
1174;SDS011;576;48.418;10.074;2024-01-15T01:47:36;3.97;;;3.20;;
1174;SDS011;576;48.418;10.074;2024-01-15T01:50:05;4.80;;;3.27;;
1174;SDS011;576;48.418;10.074;2024-01-15T01:52:34;3.80;;;3.37;;
1174;SDS011;576;48.418;10.074;2024-01-15T01:55:03;2.90;;;2.70;;
1174;SDS011;576;48.418;10.074;2024-01-15T01:57:33;3.87;;;3.37;;
1174;SDS011;576;48.418;10.074;2024-01-15T02:00:03;3.70;;;3.40;;
1174;SDS011;576;48.418;10.074;2024-01-15T02:02:40;3.47;;;3.17;;
1174;SDS011;576;48.418;10.074;2024-01-15T02:05:09;3.33;;;3.03;;
1174;SDS011;576;48.418;10.074;2024-01-15T02:07:37;4.00;;;3.00;;
1174;SDS011;576;48.418;10.074;2024-01-15T02:10:06;3.73;;;3.30;;
1174;SDS011;576;48.418;10.074;2024-01-15T02:12:35;2.80;;;2.60;;
1174;SDS011;576;48.418;10.074;2024-01-15T02:15:03;3.33;;;3.00;;
1174;SDS011;576;48.418;10.074;2024-01-15T02:17:32;3.50;;;3.20;;
1174;SDS011;576;48.418;10.074;2024-01-15T02:20:02;3.83;;;3.40;;
1174;SDS011;576;48.418;10.074;2024-01-15T02:22:30;3.27;;;2.93;;
1174;SDS011;576;48.418;10.074;2024-01-15T02:25:00;2.83;;;2.60;;
1174;SDS011;576;48.418;10.074;2024-01-15T02:27:28;3.30;;;3.00;;
1174;SDS011;576;48.418;10.074;2024-01-15T02:29:57;2.97;;;2.70;;
1174;SDS011;576;48.418;10.074;2024-01-15T02:32:25;2.70;;;2.50;;
1174;SDS011;576;48.418;10.074;2024-01-15T02:34:53;3.10;;;2.80;;
1174;SDS011;576;48.418;10.074;2024-01-15T02:37:22;3.10;;;2.90;;
1174;SDS011;576;48.418;10.074;2024-01-15T02:39:50;2.30;;;2.20;;
1174;SDS011;576;48.418;10.074;2024-01-15T02:42:20;2.60;;;2.40;;
1174;SDS011;576;48.418;10.074;2024-01-15T02:44:48;3.40;;;2.77;;
1174;SDS011;576;48.418;10.074;2024-01-15T02:47:16;2.53;;;2.33;;
1174;SDS011;576;48.418;10.074;2024-01-15T02:49:44;2.90;;;2.70;;
1174;SDS011;576;48.418;10.074;2024-01-15T02:52:13;3.57;;;3.13;;
1174;SDS011;576;48.418;10.074;2024-01-15T02:54:41;2.97;;;2.37;;
1174;SDS011;576;48.418;10.074;2024-01-15T02:57:09;4.27;;;2.63;;
1174;SDS011;576;48.418;10.074;2024-01-15T02:59:39;2.40;;;2.30;;
1174;SDS011;576;48.418;10.074;2024-01-15T03:02:07;2.53;;;2.33;;
1174;SDS011;576;48.418;10.074;2024-01-15T03:04:35;2.50;;;2.30;;
1174;SDS011;576;48.418;10.074;2024-01-15T03:07:03;2.30;;;2.13;;
1174;SDS011;576;48.418;10.074;2024-01-15T03:09:32;2.80;;;2.60;;
1174;SDS011;576;48.418;10.074;2024-01-15T03:12:00;2.67;;;2.47;;
1174;SDS011;576;48.418;10.074;2024-01-15T03:14:28;2.57;;;2.30;;
1174;SDS011;576;48.418;10.074;2024-01-15T03:16:57;2.47;;;2.20;;
1174;SDS011;576;48.418;10.074;2024-01-15T03:19:27;2.93;;;2.63;;
1174;SDS011;576;48.418;10.074;2024-01-15T03:21:55;2.80;;;2.50;;
1174;SDS011;576;48.418;10.074;2024-01-15T03:24:24;2.50;;;2.30;;
1174;SDS011;576;48.418;10.074;2024-01-15T03:26:52;2.77;;;2.57;;
1174;SDS011;576;48.418;10.074;2024-01-15T03:29:20;2.23;;;2.13;;
1174;SDS011;576;48.418;10.074;2024-01-15T03:31:48;2.47;;;2.27;;
1174;SDS011;576;48.418;10.074;2024-01-15T03:34:18;4.60;;;4.07;;
1174;SDS011;576;48.418;10.074;2024-01-15T03:36:47;2.43;;;2.23;;
1174;SDS011;576;48.418;10.074;2024-01-15T03:39:15;2.87;;;2.63;;
1174;SDS011;576;48.418;10.074;2024-01-15T03:41:43;2.60;;;2.40;;
1174;SDS011;576;48.418;10.074;2024-01-15T03:44:11;3.50;;;2.97;;
1174;SDS011;576;48.418;10.074;2024-01-15T03:46:39;2.77;;;2.40;;
1174;SDS011;576;48.418;10.074;2024-01-15T03:49:08;3.00;;;2.70;;
1174;SDS011;576;48.418;10.074;2024-01-15T03:51:38;2.57;;;2.37;;
1174;SDS011;576;48.418;10.074;2024-01-15T03:54:06;2.87;;;2.57;;
1174;SDS011;576;48.418;10.074;2024-01-15T03:56:34;2.00;;;1.90;;
1174;SDS011;576;48.418;10.074;2024-01-15T03:59:02;3.10;;;2.60;;
1174;SDS011;576;48.418;10.074;2024-01-15T04:01:30;3.30;;;3.00;;
1174;SDS011;576;48.418;10.074;2024-01-15T04:03:59;2.77;;;2.40;;
1174;SDS011;576;48.418;10.074;2024-01-15T04:06:27;2.60;;;2.40;;
1174;SDS011;576;48.418;10.074;2024-01-15T04:08:58;2.30;;;2.10;;
1174;SDS011;576;48.418;10.074;2024-01-15T04:11:27;2.63;;;2.20;;
1174;SDS011;576;48.418;10.074;2024-01-15T04:13:55;2.57;;;2.20;;
1174;SDS011;576;48.418;10.074;2024-01-15T04:16:23;2.10;;;2.00;;
1174;SDS011;576;48.418;10.074;2024-01-15T04:18:51;2.83;;;2.63;;
1174;SDS011;576;48.418;10.074;2024-01-15T04:21:20;2.43;;;2.23;;
1174;SDS011;576;48.418;10.074;2024-01-15T04:23:48;2.60;;;2.40;;
1174;SDS011;576;48.418;10.074;2024-01-15T04:26:17;2.00;;;1.90;;
1174;SDS011;576;48.418;10.074;2024-01-15T04:28:46;2.77;;;2.57;;
1174;SDS011;576;48.418;10.074;2024-01-15T04:31:20;3.53;;;2.80;;
1174;SDS011;576;48.418;10.074;2024-01-15T04:33:49;3.27;;;2.53;;
1174;SDS011;576;48.418;10.074;2024-01-15T04:36:17;3.77;;;2.50;;
1174;SDS011;576;48.418;10.074;2024-01-15T04:38:45;2.37;;;2.17;;
1174;SDS011;576;48.418;10.074;2024-01-15T04:41:14;4.03;;;2.27;;
1174;SDS011;576;48.418;10.074;2024-01-15T04:43:45;2.53;;;2.33;;
1174;SDS011;576;48.418;10.074;2024-01-15T04:46:14;3.00;;;2.80;;
1174;SDS011;576;48.418;10.074;2024-01-15T04:48:42;2.40;;;2.20;;
1174;SDS011;576;48.418;10.074;2024-01-15T04:51:10;3.73;;;3.20;;
1174;SDS011;576;48.418;10.074;2024-01-15T04:53:38;2.70;;;2.50;;
1174;SDS011;576;48.418;10.074;2024-01-15T04:56:07;4.00;;;3.00;;
1174;SDS011;576;48.418;10.074;2024-01-15T04:58:35;3.07;;;2.83;;
1174;SDS011;576;48.418;10.074;2024-01-15T05:01:04;3.13;;;2.83;;
1174;SDS011;576;48.418;10.074;2024-01-15T05:03:33;2.67;;;2.47;;
1174;SDS011;576;48.418;10.074;2024-01-15T05:06:01;2.87;;;2.67;;
1174;SDS011;576;48.418;10.074;2024-01-15T05:08:30;3.07;;;2.77;;
1174;SDS011;576;48.418;10.074;2024-01-15T05:10:58;3.30;;;3.00;;
1174;SDS011;576;48.418;10.074;2024-01-15T05:13:26;2.70;;;2.50;;
1174;SDS011;576;48.418;10.074;2024-01-15T05:15:54;2.87;;;2.63;;
1174;SDS011;576;48.418;10.074;2024-01-15T05:18:24;4.03;;;2.60;;
1174;SDS011;576;48.418;10.074;2024-01-15T05:20:53;3.97;;;2.60;;
1174;SDS011;576;48.418;10.074;2024-01-15T05:23:21;2.50;;;2.30;;
1174;SDS011;576;48.418;10.074;2024-01-15T05:25:49;3.20;;;2.90;;
1174;SDS011;576;48.418;10.074;2024-01-15T05:28:17;3.03;;;2.73;;
1174;SDS011;576;48.418;10.074;2024-01-15T05:30:45;2.50;;;2.30;;
1174;SDS011;576;48.418;10.074;2024-01-15T05:33:14;3.20;;;2.90;;
1174;SDS011;576;48.418;10.074;2024-01-15T05:35:46;4.00;;;3.23;;
1174;SDS011;576;48.418;10.074;2024-01-15T05:38:16;3.53;;;3.23;;
1174;SDS011;576;48.418;10.074;2024-01-15T05:40:45;2.90;;;2.70;;
1174;SDS011;576;48.418;10.074;2024-01-15T05:43:13;3.57;;;3.27;;
1174;SDS011;576;48.418;10.074;2024-01-15T05:45:42;3.60;;;3.03;;
1174;SDS011;576;48.418;10.074;2024-01-15T05:48:11;3.07;;;2.77;;
1174;SDS011;576;48.418;10.074;2024-01-15T05:50:39;3.50;;;3.20;;
1174;SDS011;576;48.418;10.074;2024-01-15T05:53:10;2.43;;;2.23;;
1174;SDS011;576;48.418;10.074;2024-01-15T05:55:38;2.63;;;2.43;;
1174;SDS011;576;48.418;10.074;2024-01-15T05:58:06;3.33;;;2.70;;
1174;SDS011;576;48.418;10.074;2024-01-15T06:00:35;3.37;;;3.00;;
1174;SDS011;576;48.418;10.074;2024-01-15T06:03:05;3.20;;;2.47;;
1174;SDS011;576;48.418;10.074;2024-01-15T06:05:33;3.23;;;2.67;;
1174;SDS011;576;48.418;10.074;2024-01-15T06:08:02;3.50;;;2.80;;
1174;SDS011;576;48.418;10.074;2024-01-15T06:10:32;3.73;;;3.00;;
1174;SDS011;576;48.418;10.074;2024-01-15T06:13:00;3.07;;;2.73;;
1174;SDS011;576;48.418;10.074;2024-01-15T06:15:28;3.90;;;2.43;;
1174;SDS011;576;48.418;10.074;2024-01-15T06:17:57;6.87;;;3.40;;
1174;SDS011;576;48.418;10.074;2024-01-15T06:20:26;3.10;;;2.60;;
1174;SDS011;576;48.418;10.074;2024-01-15T06:22:54;3.67;;;2.70;;
1174;SDS011;576;48.418;10.074;2024-01-15T06:25:23;3.07;;;2.63;;
1174;SDS011;576;48.418;10.074;2024-01-15T06:27:52;3.60;;;2.63;;
1174;SDS011;576;48.418;10.074;2024-01-15T06:30:20;4.23;;;2.53;;
1174;SDS011;576;48.418;10.074;2024-01-15T06:32:49;3.17;;;2.87;;
1174;SDS011;576;48.418;10.074;2024-01-15T06:35:17;4.30;;;2.53;;
1174;SDS011;576;48.418;10.074;2024-01-15T06:37:49;2.83;;;2.37;;
1174;SDS011;576;48.418;10.074;2024-01-15T06:40:17;4.20;;;2.80;;
1174;SDS011;576;48.418;10.074;2024-01-15T06:42:45;3.03;;;2.80;;
1174;SDS011;576;48.418;10.074;2024-01-15T06:45:15;2.20;;;2.00;;
1174;SDS011;576;48.418;10.074;2024-01-15T06:47:43;3.63;;;2.50;;
1174;SDS011;576;48.418;10.074;2024-01-15T06:54:11;3.23;;;2.20;;
1174;SDS011;576;48.418;10.074;2024-01-15T06:56:40;2.27;;;2.00;;
1174;SDS011;576;48.418;10.074;2024-01-15T06:59:08;4.03;;;2.33;;
1174;SDS011;576;48.418;10.074;2024-01-15T07:01:37;2.50;;;1.93;;
1174;SDS011;576;48.418;10.074;2024-01-15T07:04:06;2.43;;;2.23;;
1174;SDS011;576;48.418;10.074;2024-01-15T07:06:35;2.70;;;2.50;;
1174;SDS011;576;48.418;10.074;2024-01-15T07:09:03;2.50;;;2.30;;
1174;SDS011;576;48.418;10.074;2024-01-15T07:11:32;5.43;;;2.70;;
1174;SDS011;576;48.418;10.074;2024-01-15T07:14:00;2.73;;;2.50;;
1174;SDS011;576;48.418;10.074;2024-01-15T07:16:29;2.20;;;2.00;;
1174;SDS011;576;48.418;10.074;2024-01-15T07:19:05;2.63;;;2.43;;
1174;SDS011;576;48.418;10.074;2024-01-15T07:21:35;3.30;;;2.53;;
1174;SDS011;576;48.418;10.074;2024-01-15T07:24:06;2.80;;;2.50;;
1174;SDS011;576;48.418;10.074;2024-01-15T07:26:34;3.30;;;3.00;;
1174;SDS011;576;48.418;10.074;2024-01-15T07:29:02;2.77;;;2.57;;
1174;SDS011;576;48.418;10.074;2024-01-15T07:31:31;2.50;;;2.20;;
1174;SDS011;576;48.418;10.074;2024-01-15T07:33:59;4.03;;;2.73;;
1174;SDS011;576;48.418;10.074;2024-01-15T07:36:29;2.60;;;2.40;;
1174;SDS011;576;48.418;10.074;2024-01-15T07:38:59;2.90;;;2.07;;
1174;SDS011;576;48.418;10.074;2024-01-15T07:41:28;2.27;;;2.07;;
1174;SDS011;576;48.418;10.074;2024-01-15T07:43:56;5.00;;;2.90;;
1174;SDS011;576;48.418;10.074;2024-01-15T07:46:24;2.70;;;2.30;;
1174;SDS011;576;48.418;10.074;2024-01-15T07:48:52;4.40;;;3.17;;
1174;SDS011;576;48.418;10.074;2024-01-15T07:51:23;1.90;;;1.80;;
1174;SDS011;576;48.418;10.074;2024-01-15T07:53:53;2.90;;;2.70;;
1174;SDS011;576;48.418;10.074;2024-01-15T07:56:21;2.50;;;2.03;;
1174;SDS011;576;48.418;10.074;2024-01-15T07:58:50;2.73;;;2.53;;
1174;SDS011;576;48.418;10.074;2024-01-15T08:01:18;2.27;;;2.07;;
1174;SDS011;576;48.418;10.074;2024-01-15T08:03:47;2.57;;;2.07;;
1174;SDS011;576;48.418;10.074;2024-01-15T08:06:15;17.80;;;2.73;;
1174;SDS011;576;48.418;10.074;2024-01-15T08:08:44;2.63;;;2.27;;
1174;SDS011;576;48.418;10.074;2024-01-15T08:11:14;2.40;;;2.20;;
1174;SDS011;576;48.418;10.074;2024-01-15T08:13:43;3.33;;;2.20;;
1174;SDS011;576;48.418;10.074;2024-01-15T08:16:11;3.10;;;2.57;;
1174;SDS011;576;48.418;10.074;2024-01-15T08:18:41;3.03;;;2.73;;
1174;SDS011;576;48.418;10.074;2024-01-15T08:21:10;7.77;;;2.77;;
1174;SDS011;576;48.418;10.074;2024-01-15T08:23:39;2.77;;;2.50;;
1174;SDS011;576;48.418;10.074;2024-01-15T08:26:08;3.00;;;2.43;;
1174;SDS011;576;48.418;10.074;2024-01-15T08:28:37;3.13;;;2.50;;
1174;SDS011;576;48.418;10.074;2024-01-15T08:31:06;3.67;;;2.47;;
1174;SDS011;576;48.418;10.074;2024-01-15T08:33:34;2.40;;;2.03;;
1174;SDS011;576;48.418;10.074;2024-01-15T08:36:03;2.60;;;2.40;;
1174;SDS011;576;48.418;10.074;2024-01-15T08:38:32;1.80;;;1.70;;
1174;SDS011;576;48.418;10.074;2024-01-15T08:41:00;2.00;;;1.80;;
1174;SDS011;576;48.418;10.074;2024-01-15T08:43:28;2.23;;;2.03;;
1174;SDS011;576;48.418;10.074;2024-01-15T08:45:58;3.80;;;2.53;;
1174;SDS011;576;48.418;10.074;2024-01-15T08:48:27;3.40;;;2.70;;
1174;SDS011;576;48.418;10.074;2024-01-15T08:50:55;3.30;;;2.50;;
1174;SDS011;576;48.418;10.074;2024-01-15T08:53:23;4.10;;;2.37;;
1174;SDS011;576;48.418;10.074;2024-01-15T08:55:52;2.50;;;2.27;;
1174;SDS011;576;48.418;10.074;2024-01-15T08:58:20;4.20;;;2.03;;
1174;SDS011;576;48.418;10.074;2024-01-15T09:00:51;2.20;;;2.00;;
1174;SDS011;576;48.418;10.074;2024-01-15T09:03:20;2.63;;;1.67;;
1174;SDS011;576;48.418;10.074;2024-01-15T09:05:49;2.70;;;2.07;;
1174;SDS011;576;48.418;10.074;2024-01-15T09:08:18;2.90;;;2.50;;
1174;SDS011;576;48.418;10.074;2024-01-15T09:10:46;3.47;;;2.60;;
1174;SDS011;576;48.418;10.074;2024-01-15T09:13:14;3.87;;;2.47;;
1174;SDS011;576;48.418;10.074;2024-01-15T09:15:43;3.17;;;2.40;;
1174;SDS011;576;48.418;10.074;2024-01-15T09:18:11;3.80;;;2.20;;
1174;SDS011;576;48.418;10.074;2024-01-15T09:20:41;2.90;;;2.07;;
1174;SDS011;576;48.418;10.074;2024-01-15T09:23:10;2.67;;;2.00;;
1174;SDS011;576;48.418;10.074;2024-01-15T09:25:39;3.03;;;2.30;;
1174;SDS011;576;48.418;10.074;2024-01-15T09:28:07;3.33;;;2.50;;
1174;SDS011;576;48.418;10.074;2024-01-15T09:30:36;2.03;;;1.73;;
1174;SDS011;576;48.418;10.074;2024-01-15T09:33:04;2.53;;;2.33;;
1174;SDS011;576;48.418;10.074;2024-01-15T09:35:32;2.40;;;1.80;;
1174;SDS011;576;48.418;10.074;2024-01-15T09:38:02;2.37;;;1.70;;
1174;SDS011;576;48.418;10.074;2024-01-15T09:40:32;2.27;;;2.07;;
1174;SDS011;576;48.418;10.074;2024-01-15T09:43:01;2.53;;;2.00;;
1174;SDS011;576;48.418;10.074;2024-01-15T09:45:30;2.63;;;2.20;;
1174;SDS011;576;48.418;10.074;2024-01-15T09:47:58;2.10;;;1.90;;
1174;SDS011;576;48.418;10.074;2024-01-15T09:50:27;2.20;;;2.07;;
1174;SDS011;576;48.418;10.074;2024-01-15T09:52:56;2.17;;;2.07;;
1174;SDS011;576;48.418;10.074;2024-01-15T09:55:26;2.57;;;2.20;;
1174;SDS011;576;48.418;10.074;2024-01-15T09:57:55;1.80;;;1.57;;
1174;SDS011;576;48.418;10.074;2024-01-15T10:00:25;2.90;;;2.10;;
1174;SDS011;576;48.418;10.074;2024-01-15T10:02:54;1.80;;;1.70;;
1174;SDS011;576;48.418;10.074;2024-01-15T10:05:22;2.33;;;1.67;;
1174;SDS011;576;48.418;10.074;2024-01-15T10:07:51;2.30;;;2.10;;
1174;SDS011;576;48.418;10.074;2024-01-15T10:10:20;1.83;;;1.70;;
1174;SDS011;576;48.418;10.074;2024-01-15T10:12:50;2.30;;;2.10;;
1174;SDS011;576;48.418;10.074;2024-01-15T10:15:21;2.17;;;2.03;;
1174;SDS011;576;48.418;10.074;2024-01-15T10:17:50;2.87;;;2.00;;
1174;SDS011;576;48.418;10.074;2024-01-15T10:20:18;2.27;;;1.60;;
1174;SDS011;576;48.418;10.074;2024-01-15T10:22:50;2.10;;;1.60;;
1174;SDS011;576;48.418;10.074;2024-01-15T10:25:18;1.77;;;1.67;;
1174;SDS011;576;48.418;10.074;2024-01-15T10:28:00;1.80;;;1.50;;
1174;SDS011;576;48.418;10.074;2024-01-15T10:30:29;2.43;;;2.23;;
1174;SDS011;576;48.418;10.074;2024-01-15T10:33:00;2.97;;;2.03;;
1174;SDS011;576;48.418;10.074;2024-01-15T10:35:29;1.50;;;1.40;;
1174;SDS011;576;48.418;10.074;2024-01-15T10:37:58;1.73;;;1.63;;
1174;SDS011;576;48.418;10.074;2024-01-15T10:40:27;2.10;;;1.90;;
1174;SDS011;576;48.418;10.074;2024-01-15T10:42:55;2.00;;;1.80;;
1174;SDS011;576;48.418;10.074;2024-01-15T10:45:25;1.87;;;1.70;;
1174;SDS011;576;48.418;10.074;2024-01-15T10:47:53;1.77;;;1.67;;
1174;SDS011;576;48.418;10.074;2024-01-15T10:50:26;1.77;;;1.67;;
1174;SDS011;576;48.418;10.074;2024-01-15T10:52:54;1.80;;;1.63;;
1174;SDS011;576;48.418;10.074;2024-01-15T10:55:24;2.30;;;2.20;;
1174;SDS011;576;48.418;10.074;2024-01-15T10:57:53;1.57;;;1.47;;
1174;SDS011;576;48.418;10.074;2024-01-15T11:00:24;2.00;;;1.90;;
1174;SDS011;576;48.418;10.074;2024-01-15T11:02:54;1.70;;;1.60;;
1174;SDS011;576;48.418;10.074;2024-01-15T11:05:23;1.83;;;1.73;;
1174;SDS011;576;48.418;10.074;2024-01-15T11:07:51;1.60;;;1.50;;
1174;SDS011;576;48.418;10.074;2024-01-15T11:10:38;2.10;;;1.73;;
1174;SDS011;576;48.418;10.074;2024-01-15T11:13:09;2.20;;;1.87;;
1174;SDS011;576;48.418;10.074;2024-01-15T11:15:55;1.83;;;1.70;;
1174;SDS011;576;48.418;10.074;2024-01-15T11:18:25;2.03;;;1.73;;
1174;SDS011;576;48.418;10.074;2024-01-15T11:23:53;2.40;;;2.20;;
1174;SDS011;576;48.418;10.074;2024-01-15T11:26:31;1.60;;;1.50;;
1174;SDS011;576;48.418;10.074;2024-01-15T11:29:02;1.70;;;1.60;;
1174;SDS011;576;48.418;10.074;2024-01-15T11:37:19;1.90;;;1.80;;
1174;SDS011;576;48.418;10.074;2024-01-15T11:39:50;4.60;;;1.70;;
1174;SDS011;576;48.418;10.074;2024-01-15T11:42:20;2.10;;;1.70;;
1174;SDS011;576;48.418;10.074;2024-01-15T11:44:49;1.77;;;1.67;;
1174;SDS011;576;48.418;10.074;2024-01-15T11:47:24;1.70;;;1.40;;
1174;SDS011;576;48.418;10.074;2024-01-15T11:50:23;1.93;;;1.63;;
1174;SDS011;576;48.418;10.074;2024-01-15T11:52:56;2.10;;;1.90;;
1174;SDS011;576;48.418;10.074;2024-01-15T11:55:33;1.77;;;1.67;;
1174;SDS011;576;48.418;10.074;2024-01-15T11:58:03;2.17;;;2.00;;
1174;SDS011;576;48.418;10.074;2024-01-15T12:00:39;1.43;;;1.33;;
1174;SDS011;576;48.418;10.074;2024-01-15T12:03:09;1.10;;;1.10;;
1174;SDS011;576;48.418;10.074;2024-01-15T12:05:38;1.63;;;1.40;;
1174;SDS011;576;48.418;10.074;2024-01-15T12:08:08;1.53;;;1.33;;
1174;SDS011;576;48.418;10.074;2024-01-15T12:10:38;1.30;;;1.20;;
1174;SDS011;576;48.418;10.074;2024-01-15T12:13:09;1.30;;;1.20;;
1174;SDS011;576;48.418;10.074;2024-01-15T12:15:39;1.67;;;1.57;;
1174;SDS011;576;48.418;10.074;2024-01-15T12:18:11;1.50;;;1.40;;
1174;SDS011;576;48.418;10.074;2024-01-15T12:20:41;4.20;;;1.60;;
1174;SDS011;576;48.418;10.074;2024-01-15T12:23:10;2.90;;;1.77;;
1174;SDS011;576;48.418;10.074;2024-01-15T12:25:39;1.70;;;1.60;;
1174;SDS011;576;48.418;10.074;2024-01-15T12:28:08;4.10;;;1.60;;
1174;SDS011;576;48.418;10.074;2024-01-15T12:30:37;1.93;;;1.30;;
1174;SDS011;576;48.418;10.074;2024-01-15T12:33:07;2.60;;;1.43;;
1174;SDS011;576;48.418;10.074;2024-01-15T12:35:37;1.70;;;1.60;;
1174;SDS011;576;48.418;10.074;2024-01-15T12:38:06;1.80;;;1.03;;
1174;SDS011;576;48.418;10.074;2024-01-15T12:40:34;1.03;;;1.00;;
1174;SDS011;576;48.418;10.074;2024-01-15T12:43:03;1.23;;;1.13;;
1174;SDS011;576;48.418;10.074;2024-01-15T12:45:34;1.00;;;1.00;;
1174;SDS011;576;48.418;10.074;2024-01-15T12:48:03;1.30;;;1.20;;
1174;SDS011;576;48.418;10.074;2024-01-15T12:50:33;1.53;;;1.33;;
1174;SDS011;576;48.418;10.074;2024-01-15T12:53:03;1.00;;;0.93;;
1174;SDS011;576;48.418;10.074;2024-01-15T12:55:31;1.30;;;1.20;;
1174;SDS011;576;48.418;10.074;2024-01-15T12:58:01;1.20;;;1.13;;
1174;SDS011;576;48.418;10.074;2024-01-15T13:00:29;1.33;;;1.23;;
1174;SDS011;576;48.418;10.074;2024-01-15T13:02:57;1.40;;;1.00;;
1174;SDS011;576;48.418;10.074;2024-01-15T13:05:27;1.43;;;1.30;;
1174;SDS011;576;48.418;10.074;2024-01-15T13:07:56;1.87;;;1.40;;
1174;SDS011;576;48.418;10.074;2024-01-15T13:10:27;1.27;;;1.17;;
1174;SDS011;576;48.418;10.074;2024-01-15T13:12:56;0.90;;;0.90;;
1174;SDS011;576;48.418;10.074;2024-01-15T13:15:25;1.60;;;1.50;;
1174;SDS011;576;48.418;10.074;2024-01-15T13:17:53;2.70;;;1.13;;
1174;SDS011;576;48.418;10.074;2024-01-15T13:20:22;1.40;;;1.30;;
1174;SDS011;576;48.418;10.074;2024-01-15T13:22:51;4.77;;;1.23;;
1174;SDS011;576;48.418;10.074;2024-01-15T13:25:19;0.90;;;0.90;;
1174;SDS011;576;48.418;10.074;2024-01-15T13:27:48;1.17;;;1.00;;
1174;SDS011;576;48.418;10.074;2024-01-15T13:30:18;2.57;;;1.50;;
1174;SDS011;576;48.418;10.074;2024-01-15T13:32:46;1.10;;;1.00;;
1174;SDS011;576;48.418;10.074;2024-01-15T13:35:14;1.20;;;1.10;;
1174;SDS011;576;48.418;10.074;2024-01-15T13:37:43;2.00;;;1.00;;
1174;SDS011;576;48.418;10.074;2024-01-15T13:40:14;2.27;;;1.40;;
1174;SDS011;576;48.418;10.074;2024-01-15T13:42:46;2.63;;;1.17;;
1174;SDS011;576;48.418;10.074;2024-01-15T13:45:16;1.37;;;0.90;;
1174;SDS011;576;48.418;10.074;2024-01-15T13:47:47;1.40;;;1.20;;
1174;SDS011;576;48.418;10.074;2024-01-15T13:50:15;0.97;;;0.90;;
1174;SDS011;576;48.418;10.074;2024-01-15T13:52:43;2.30;;;1.20;;
1174;SDS011;576;48.418;10.074;2024-01-15T13:55:11;1.23;;;1.13;;
1174;SDS011;576;48.418;10.074;2024-01-15T13:57:40;1.60;;;1.27;;
1174;SDS011;576;48.418;10.074;2024-01-15T14:00:09;1.40;;;1.10;;
1174;SDS011;576;48.418;10.074;2024-01-15T14:02:40;1.23;;;1.00;;
1174;SDS011;576;48.418;10.074;2024-01-15T14:05:09;2.00;;;1.40;;
1174;SDS011;576;48.418;10.074;2024-01-15T14:07:39;1.67;;;1.10;;
1174;SDS011;576;48.418;10.074;2024-01-15T14:10:09;1.83;;;1.20;;
1174;SDS011;576;48.418;10.074;2024-01-15T14:12:38;1.53;;;0.97;;
1174;SDS011;576;48.418;10.074;2024-01-15T14:15:07;1.20;;;1.10;;
1174;SDS011;576;48.418;10.074;2024-01-15T14:17:36;2.23;;;1.07;;
1174;SDS011;576;48.418;10.074;2024-01-15T14:20:07;2.87;;;1.30;;
1174;SDS011;576;48.418;10.074;2024-01-15T14:22:36;3.17;;;1.37;;
1174;SDS011;576;48.418;10.074;2024-01-15T14:25:05;1.10;;;1.00;;
1174;SDS011;576;48.418;10.074;2024-01-15T14:27:34;1.07;;;0.83;;
1174;SDS011;576;48.418;10.074;2024-01-15T14:30:03;1.60;;;0.87;;
1174;SDS011;576;48.418;10.074;2024-01-15T14:32:35;1.63;;;1.10;;
1174;SDS011;576;48.418;10.074;2024-01-15T14:35:03;1.10;;;1.00;;
1174;SDS011;576;48.418;10.074;2024-01-15T14:37:34;3.27;;;1.47;;
1174;SDS011;576;48.418;10.074;2024-01-15T14:40:02;2.00;;;1.27;;
1174;SDS011;576;48.418;10.074;2024-01-15T14:42:32;1.43;;;1.00;;
1174;SDS011;576;48.418;10.074;2024-01-15T14:45:01;1.30;;;1.10;;
1174;SDS011;576;48.418;10.074;2024-01-15T14:47:30;1.53;;;1.10;;
1174;SDS011;576;48.418;10.074;2024-01-15T14:49:59;1.67;;;1.10;;
1174;SDS011;576;48.418;10.074;2024-01-15T14:52:27;2.50;;;0.90;;
1174;SDS011;576;48.418;10.074;2024-01-15T14:54:57;1.03;;;0.87;;
1174;SDS011;576;48.418;10.074;2024-01-15T14:57:25;0.90;;;0.80;;
1174;SDS011;576;48.418;10.074;2024-01-15T14:59:53;0.73;;;0.73;;
1174;SDS011;576;48.418;10.074;2024-01-15T15:02:22;0.80;;;0.80;;
1174;SDS011;576;48.418;10.074;2024-01-15T15:04:57;1.00;;;0.93;;
1174;SDS011;576;48.418;10.074;2024-01-15T15:07:26;1.07;;;0.97;;
1174;SDS011;576;48.418;10.074;2024-01-15T15:09:55;0.70;;;0.70;;
1174;SDS011;576;48.418;10.074;2024-01-15T15:12:24;0.80;;;0.67;;
1174;SDS011;576;48.418;10.074;2024-01-15T15:14:53;1.77;;;0.93;;
1174;SDS011;576;48.418;10.074;2024-01-15T15:17:34;1.10;;;0.90;;
1174;SDS011;576;48.418;10.074;2024-01-15T15:20:02;1.87;;;0.90;;
1174;SDS011;576;48.418;10.074;2024-01-15T15:22:32;4.97;;;1.60;;
1174;SDS011;576;48.418;10.074;2024-01-15T15:25:01;1.17;;;0.83;;
1174;SDS011;576;48.418;10.074;2024-01-15T15:27:30;0.97;;;0.70;;
1174;SDS011;576;48.418;10.074;2024-01-15T15:29:58;0.80;;;0.80;;
1174;SDS011;576;48.418;10.074;2024-01-15T15:32:26;1.00;;;0.90;;
1174;SDS011;576;48.418;10.074;2024-01-15T15:34:55;0.77;;;0.70;;
1174;SDS011;576;48.418;10.074;2024-01-15T15:37:23;0.80;;;0.80;;
1174;SDS011;576;48.418;10.074;2024-01-15T15:39:52;0.83;;;0.83;;